Terminal Aerodrome Forecast
Issued by NWS

Home | Current Version | Previous Version | Text Only | Print | Product List | Glossary On
Versions: 1 2 3 4 5 6 7 8 9 10 11 12 13 14 15 16 17 18 19
000
FTUS42 KTAE 011731
TAFVLD
TAF
KVLD 011731Z 0118/0218 04003KT P6SM VCTS BKN025CB BKN050
      TEMPO 0118/0122 3SM TSRA
     FM020100 VRB03KT P6SM BKN250
     FM020900 14003KT 5SM BR BKN007
     FM021400 15005KT P6SM VCSH BKN025=

USA.gov is the U.S. government's official web portal to all federal, state and local government web resources and services.